Alba, TX

2:32 PM CST on December 19, 2014 (GMT -0600)
Majors | Change Station
CLOSE
Current Station
Airport
Location: Greenville,
Elevation: 535 ft
Nearby Weather Stations

Elev 535 ft 33.07 °N, 96.07 °W | Updated 17 minutes ago

Overcast
Overcast
48 °F
Feels Like 48 °F
N
7
Wind Variable Wind from North

Today
High -- | Low -- °F
--% Chance of Precip.
Yesterday
High -- | Low -- °F
Precip. -- in
7:19 AM 5:19 PM
Waning Crescent, 6% visible
Pressure 30.15 in
Visibility 7.0 miles
Clouds Overcast 700 ft
Dew Point 45 °F
Humidity 87%
Rainfall 0.03 in
Snow Depth Not available.
UV 1 out of 12
Pollen 8.00 out of 12
Air Quality Not available.
Flu Activity Not available.
METAR KGVT 192015Z AUTO 01006KT 7SM OVC007 09/07 A3015 RMK AO2

More Conditions Fewer Conditions

Pressure 30.15 in
Visibility 7.0 miles
Clouds Overcast 700 ft
Dew Point 45 °F
Humidity 87%
Rainfall 0.03 in
Snow Depth Not available.
UV 1 out of 12
Pollen 8.00 out of 12
Air Quality Not available.
Flu Activity Not available.
METAR KGVT 192015Z AUTO 01006KT 7SM OVC007 09/07 A3015 RMK AO2

More Conditions Fewer Conditions

10-Day Weather Forecast

Almanac

Astronomy

Dec. 19, 2014 Rise Set
Actual Time
Civil Twilight
Nautical Twilight
Astronomical Twilight
Moon
Length of Visible Light
Length of Day
Tomorrow will be .
, % of the Moon is Illuminated

Today's Extremes

State Highs State Lows

Community

WunderPhotos

Upload Photos

1,779,048 photos uploaded!

WunderBlogs® & News

Nearby

Air Quality

  Air Quality AQ Index Pollutant
Not available.

Snow Depth

Station Depth Elevation

Earthquake Activity

City Distance Mag. Time & Date
Minimum magnitude displayed is 2.5.

Coastal Water Temperatures

Place Temperature

Nearby Weather Stations